sensor_id;sensor_type;location;lat;lon;timestamp;pressure;altitude;pressure_sealevel;temperature;humidity
20145;BME280;10233;50.814;6.590;2023-03-21T00:00:14;100392.53;;;9.96;100.00
20145;BME280;10233;50.814;6.590;2023-03-21T00:01:15;100393.97;;;9.99;100.00
20145;BME280;10233;50.814;6.590;2023-03-21T00:02:16;100388.47;;;10.00;100.00
20145;BME280;10233;50.814;6.590;2023-03-21T00:03:17;100385.72;;;9.87;100.00
20145;BME280;10233;50.814;6.590;2023-03-21T00:04:18;100386.75;;;9.86;100.00
20145;BME280;10233;50.814;6.590;2023-03-21T00:05:22;100390.22;;;9.87;100.00
20145;BME280;10233;50.814;6.590;2023-03-21T00:06:22;100384.34;;;9.91;100.00
20145;BME280;10233;50.814;6.590;2023-03-21T00:07:23;100385.72;;;9.87;100.00
20145;BME280;10233;50.814;6.590;2023-03-21T00:08:24;100386.81;;;9.99;100.00
20145;BME280;10233;50.814;6.590;2023-03-21T00:09:25;100382.72;;;9.97;100.00
20145;BME280;10233;50.814;6.590;2023-03-21T00:10:26;100375.72;;;9.89;100.00
20145;BME280;10233;50.814;6.590;2023-03-21T00:11:27;100378.94;;;10.06;100.00
20145;BME280;10233;50.814;6.590;2023-03-21T00:12:27;100371.25;;;10.17;100.00
20145;BME280;10233;50.814;6.590;2023-03-21T00:13:34;100371.91;;;9.98;100.00
20145;BME280;10233;50.814;6.590;2023-03-21T00:14:37;100367.50;;;10.05;100.00
20145;BME280;10233;50.814;6.590;2023-03-21T00:15:38;100374.75;;;9.97;100.00
20145;BME280;10233;50.814;6.590;2023-03-21T00:16:49;100366.59;;;9.98;100.00
20145;BME280;10233;50.814;6.590;2023-03-21T00:17:49;100365.56;;;9.93;100.00
20145;BME280;10233;50.814;6.590;2023-03-21T00:18:52;100366.41;;;10.00;100.00
20145;BME280;10233;50.814;6.590;2023-03-21T00:19:53;100362.31;;;9.97;100.00
20145;BME280;10233;50.814;6.590;2023-03-21T00:20:58;100366.75;;;9.90;100.00
20145;BME280;10233;50.814;6.590;2023-03-21T00:21:59;100364.72;;;9.92;100.00
20145;BME280;10233;50.814;6.590;2023-03-21T00:23:01;100365.34;;;9.94;100.00
20145;BME280;10233;50.814;6.590;2023-03-21T00:24:04;100361.59;;;10.10;100.00
20145;BME280;10233;50.814;6.590;2023-03-21T00:25:06;100362.53;;;10.02;100.00
20145;BME280;10233;50.814;6.590;2023-03-21T00:26:07;100370.66;;;9.94;100.00
20145;BME280;10233;50.814;6.590;2023-03-21T00:27:09;100364.50;;;9.87;100.00
20145;BME280;10233;50.814;6.590;2023-03-21T00:28:09;100363.88;;;9.85;100.00
20145;BME280;10233;50.814;6.590;2023-03-21T00:29:10;100365.94;;;9.90;100.00
20145;BME280;10233;50.814;6.590;2023-03-21T00:30:11;100365.50;;;9.86;100.00
20145;BME280;10233;50.814;6.590;2023-03-21T00:31:11;100360.81;;;9.88;100.00
20145;BME280;10233;50.814;6.590;2023-03-21T00:32:12;100362.44;;;9.89;100.00
20145;BME280;10233;50.814;6.590;2023-03-21T00:33:13;100361.00;;;9.87;100.00
20145;BME280;10233;50.814;6.590;2023-03-21T00:34:13;100353.25;;;9.85;100.00
20145;BME280;10233;50.814;6.590;2023-03-21T00:35:15;100359.00;;;9.89;100.00
20145;BME280;10233;50.814;6.590;2023-03-21T00:36:15;100353.69;;;9.89;100.00
20145;BME280;10233;50.814;6.590;2023-03-21T00:37:16;100355.97;;;9.98;100.00
20145;BME280;10233;50.814;6.590;2023-03-21T00:38:19;100358.81;;;9.97;100.00
20145;BME280;10233;50.814;6.590;2023-03-21T00:39:20;100354.28;;;9.91;100.00
20145;BME280;10233;50.814;6.590;2023-03-21T00:40:21;100357.38;;;9.94;100.00
20145;BME280;10233;50.814;6.590;2023-03-21T00:41:22;100346.91;;;9.86;100.00
20145;BME280;10233;50.814;6.590;2023-03-21T00:42:22;100357.81;;;9.98;100.00
20145;BME280;10233;50.814;6.590;2023-03-21T00:43:23;100357.38;;;9.94;100.00
20145;BME280;10233;50.814;6.590;2023-03-21T00:44:29;100349.63;;;9.99;100.00
20145;BME280;10233;50.814;6.590;2023-03-21T00:45:36;100348.75;;;9.86;100.00
20145;BME280;10233;50.814;6.590;2023-03-21T00:46:36;100344.25;;;9.86;100.00
20145;BME280;10233;50.814;6.590;2023-03-21T00:47:39;100349.81;;;9.91;100.00
20145;BME280;10233;50.814;6.590;2023-03-21T00:48:40;100346.19;;;9.99;100.00
20145;BME280;10233;50.814;6.590;2023-03-21T00:49:41;100342.66;;;9.92;100.00
20145;BME280;10233;50.814;6.590;2023-03-21T00:50:43;100351.25;;;9.94;100.00
20145;BME280;10233;50.814;6.590;2023-03-21T00:51:44;100338.91;;;10.07;100.00
20145;BME280;10233;50.814;6.590;2023-03-21T00:52:45;100338.44;;;10.04;100.00
20145;BME280;10233;50.814;6.590;2023-03-21T00:53:46;100342.38;;;10.08;100.00
20145;BME280;10233;50.814;6.590;2023-03-21T00:54:46;100342.94;;;10.03;100.00
20145;BME280;10233;50.814;6.590;2023-03-21T00:55:48;100332.25;;;9.97;100.00
20145;BME280;10233;50.814;6.590;2023-03-21T00:56:48;100332.72;;;10.00;100.00
20145;BME280;10233;50.814;6.590;2023-03-21T00:57:49;100342.50;;;10.00;100.00
20145;BME280;10233;50.814;6.590;2023-03-21T00:58:50;100332.72;;;10.00;100.00
20145;BME280;10233;50.814;6.590;2023-03-21T00:59:50;100340.09;;;10.05;100.00
20145;BME280;10233;50.814;6.590;2023-03-21T01:00:51;100335.97;;;10.02;100.00
20145;BME280;10233;50.814;6.590;2023-03-21T01:01:51;100334.78;;;10.05;100.00
20145;BME280;10233;50.814;6.590;2023-03-21T01:02:52;100341.56;;;10.07;100.00
20145;BME280;10233;50.814;6.590;2023-03-21T01:03:57;100345.28;;;10.13;100.00
20145;BME280;10233;50.814;6.590;2023-03-21T01:05:03;100340.16;;;10.11;100.00
20145;BME280;10233;50.814;6.590;2023-03-21T01:06:04;100337.31;;;10.13;100.00
20145;BME280;10233;50.814;6.590;2023-03-21T01:07:06;100338.72;;;10.09;100.00
20145;BME280;10233;50.814;6.590;2023-03-21T01:08:06;100333.19;;;10.10;100.00
20145;BME280;10233;50.814;6.590;2023-03-21T01:09:15;100336.84;;;10.09;100.00
20145;BME280;10233;50.814;6.590;2023-03-21T01:10:16;100334.44;;;10.14;100.00
20145;BME280;10233;50.814;6.590;2023-03-21T01:11:19;100328.72;;;10.17;100.00
20145;BME280;10233;50.814;6.590;2023-03-21T01:12:20;100338.28;;;10.12;100.00
20145;BME280;10233;50.814;6.590;2023-03-21T01:13:23;100323.19;;;10.12;100.00
20145;BME280;10233;50.814;6.590;2023-03-21T01:14:24;100329.13;;;10.14;100.00
20145;BME280;10233;50.814;6.590;2023-03-21T01:15:27;100326.69;;;10.19;100.00
20145;BME280;10233;50.814;6.590;2023-03-21T01:16:28;100326.53;;;10.27;100.00
20145;BME280;10233;50.814;6.590;2023-03-21T01:17:28;100331.28;;;10.38;100.00
20145;BME280;10233;50.814;6.590;2023-03-21T01:18:30;100330.81;;;10.28;100.00
20145;BME280;10233;50.814;6.590;2023-03-21T01:19:31;100331.50;;;10.37;100.00
20145;BME280;10233;50.814;6.590;2023-03-21T01:20:31;100325.31;;;10.30;100.00
20145;BME280;10233;50.814;6.590;2023-03-21T01:21:32;100324.72;;;10.28;100.00
20145;BME280;10233;50.814;6.590;2023-03-21T01:22:33;100323.91;;;10.34;100.00
20145;BME280;10233;50.814;6.590;2023-03-21T01:23:33;100328.84;;;10.37;100.00
20145;BME280;10233;50.814;6.590;2023-03-21T01:24:34;100324.28;;;10.31;100.00
20145;BME280;10233;50.814;6.590;2023-03-21T01:25:35;100332.28;;;10.37;100.00
20145;BME280;10233;50.814;6.590;2023-03-21T01:26:36;100328.44;;;10.46;100.00
20145;BME280;10233;50.814;6.590;2023-03-21T01:27:37;100326.00;;;10.51;100.00
20145;BME280;10233;50.814;6.590;2023-03-21T01:28:40;100322.13;;;10.54;100.00
20145;BME280;10233;50.814;6.590;2023-03-21T01:29:41;100317.88;;;10.59;100.00
20145;BME280;10233;50.814;6.590;2023-03-21T01:30:50;100317.44;;;10.62;100.00
20145;BME280;10233;50.814;6.590;2023-03-21T01:31:50;100314.22;;;10.67;100.00
20145;BME280;10233;50.814;6.590;2023-03-21T01:32:51;100319.09;;;10.70;100.00
20145;BME280;10233;50.814;6.590;2023-03-21T01:33:52;100314.44;;;10.72;100.00
20145;BME280;10233;50.814;6.590;2023-03-21T01:34:52;100319.13;;;10.76;100.00
20145;BME280;10233;50.814;6.590;2023-03-21T01:35:56;100320.97;;;10.82;100.00
20145;BME280;10233;50.814;6.590;2023-03-21T01:36:57;100312.00;;;10.83;100.00
20145;BME280;10233;50.814;6.590;2023-03-21T01:37:58;100315.06;;;10.80;100.00
20145;BME280;10233;50.814;6.590;2023-03-21T01:38:59;100312.63;;;10.92;100.00
20145;BME280;10233;50.814;6.590;2023-03-21T01:39:59;100316.09;;;10.92;100.00
20145;BME280;10233;50.814;6.590;2023-03-21T01:41:00;100304.84;;;10.90;100.00
20145;BME280;10233;50.814;6.590;2023-03-21T01:42:12;100308.75;;;11.01;100.00
20145;BME280;10233;50.814;6.590;2023-03-21T01:44:24;100301.59;;;11.08;100.00
20145;BME280;10233;50.814;6.590;2023-03-21T01:47:24;100297.50;;;11.05;100.00
20145;BME280;10233;50.814;6.590;2023-03-21T01:48:42;100296.06;;;11.09;100.00
20145;BME280;10233;50.814;6.590;2023-03-21T01:49:45;100294.25;;;11.10;100.00
20145;BME280;10233;50.814;6.590;2023-03-21T01:50:53;100295.03;;;11.10;100.00
20145;BME280;10233;50.814;6.590;2023-03-21T01:52:11;100289.72;;;11.10;100.00
20145;BME280;10233;50.814;6.590;2023-03-21T01:53:15;100288.69;;;11.11;100.00
20145;BME280;10233;50.814;6.590;2023-03-21T01:54:26;100296.47;;;11.13;100.00
20145;BME280;10233;50.814;6.590;2023-03-21T01:55:28;100291.56;;;11.16;100.00
20145;BME280;10233;50.814;6.590;2023-03-21T01:56:37;100287.88;;;11.11;100.00
20145;BME280;10233;50.814;6.590;2023-03-21T01:57:49;100280.72;;;11.11;100.00
20145;BME280;10233;50.814;6.590;2023-03-21T01:58:57;100277.03;;;11.12;100.00
20145;BME280;10233;50.814;6.590;2023-03-21T02:00:25;100287.69;;;11.12;100.00
20145;BME280;10233;50.814;6.590;2023-03-21T02:01:39;100281.13;;;11.08;100.00
20145;BME280;10233;50.814;6.590;2023-03-21T02:02:45;100277.03;;;11.12;100.00
20145;BME280;10233;50.814;6.590;2023-03-21T02:04:08;100281.13;;;11.21;100.00
20145;BME280;10233;50.814;6.590;2023-03-21T02:05:50;100271.94;;;11.17;100.00
20145;BME280;10233;50.814;6.590;2023-03-21T02:06:56;100274.59;;;11.17;100.00
20145;BME280;10233;50.814;6.590;2023-03-21T02:08:19;100267.63;;;11.42;100.00
20145;BME280;10233;50.814;6.590;2023-03-21T02:09:23;100275.78;;;11.34;100.00
20145;BME280;10233;50.814;6.590;2023-03-21T02:10:25;100275.78;;;11.21;100.00
20145;BME280;10233;50.814;6.590;2023-03-21T02:11:30;100273.34;;;11.07;100.00
20145;BME280;10233;50.814;6.590;2023-03-21T02:12:31;100266.19;;;10.94;100.00
20145;BME280;10233;50.814;6.590;2023-03-21T02:13:33;100271.72;;;10.99;100.00
20145;BME280;10233;50.814;6.590;2023-03-21T02:14:36;100269.22;;;10.85;100.00
20145;BME280;10233;50.814;6.590;2023-03-21T02:28:50;100255.44;;;10.29;100.00
20145;BME280;10233;50.814;6.590;2023-03-21T02:30:08;100259.50;;;10.25;100.00
20145;BME280;10233;50.814;6.590;2023-03-21T02:36:59;100247.47;;;10.29;100.00
20145;BME280;10233;50.814;6.590;2023-03-21T02:38:40;100250.88;;;10.23;100.00
20145;BME280;10233;50.814;6.590;2023-03-21T02:41:07;100249.41;;;10.14;100.00
20145;BME280;10233;50.814;6.590;2023-03-21T02:42:38;100252.72;;;10.16;100.00
20145;BME280;10233;50.814;6.590;2023-03-21T02:43:46;100251.84;;;10.09;100.00
20145;BME280;10233;50.814;6.590;2023-03-21T02:45:18;100257.00;;;10.17;100.00
20145;BME280;10233;50.814;6.590;2023-03-21T02:46:31;100260.28;;;10.19;100.00
20145;BME280;10233;50.814;6.590;2023-03-21T02:47:41;100255.97;;;10.18;100.00
20145;BME280;10233;50.814;6.590;2023-03-21T02:50:59;100249.31;;;9.95;100.00
20145;BME280;10233;50.814;6.590;2023-03-21T02:52:01;100251.19;;;10.01;100.00
20145;BME280;10233;50.814;6.590;2023-03-21T02:53:06;100237.69;;;9.96;100.00
20145;BME280;10233;50.814;6.590;2023-03-21T02:54:12;100239.50;;;9.89;100.00
20145;BME280;10233;50.814;6.590;2023-03-21T02:55:22;100239.09;;;9.85;100.00
20145;BME280;10233;50.814;6.590;2023-03-21T02:56:29;100242.72;;;9.84;100.00
20145;BME280;10233;50.814;6.590;2023-03-21T02:57:33;100238.44;;;9.83;100.00
20145;BME280;10233;50.814;6.590;2023-03-21T02:58:38;100239.84;;;9.79;100.00
20145;BME280;10233;50.814;6.590;2023-03-21T02:59:41;100239.88;;;9.86;100.00
20145;BME280;10233;50.814;6.590;2023-03-21T03:00:47;100239.84;;;9.79;100.00
20145;BME280;10233;50.814;6.590;2023-03-21T03:01:59;100240.50;;;9.81;100.00
20145;BME280;10233;50.814;6.590;2023-03-21T03:03:00;100235.56;;;9.78;100.00
20145;BME280;10233;50.814;6.590;2023-03-21T03:04:01;100227.00;;;9.83;100.00
20145;BME280;10233;50.814;6.590;2023-03-21T03:05:19;100234.31;;;9.74;100.00
20145;BME280;10233;50.814;6.590;2023-03-21T03:06:28;100236.97;;;9.74;100.00
20145;BME280;10233;50.814;6.590;2023-03-21T03:07:55;100233.28;;;9.75;100.00
20145;BME280;10233;50.814;6.590;2023-03-21T03:11:38;100224.56;;;9.81;100.00
20145;BME280;10233;50.814;6.590;2023-03-21T03:13:14;100227.03;;;9.89;100.00
20145;BME280;10233;50.814;6.590;2023-03-21T03:15:44;100222.31;;;9.85;100.00
20145;BME280;10233;50.814;6.590;2023-03-21T03:18:53;100216.56;;;9.75;100.00
20145;BME280;10233;50.814;6.590;2023-03-21T03:21:44;100221.91;;;9.81;100.00
20145;BME280;10233;50.814;6.590;2023-03-21T03:24:05;100219.84;;;9.83;100.00
20145;BME280;10233;50.814;6.590;2023-03-21T03:25:12;100214.53;;;9.83;100.00
20145;BME280;10233;50.814;6.590;2023-03-21T03:26:25;100212.75;;;9.97;100.00
20145;BME280;10233;50.814;6.590;2023-03-21T03:27:40;100208.88;;;9.99;100.00
20145;BME280;10233;50.814;6.590;2023-03-21T03:28:48;100212.56;;;9.98;100.00
20145;BME280;10233;50.814;6.590;2023-03-21T03:29:52;100212.00;;;10.03;100.00
20145;BME280;10233;50.814;6.590;2023-03-21T03:31:00;100212.63;;;10.05;100.00
20145;BME280;10233;50.814;6.590;2023-03-21T03:32:09;100204.81;;;10.03;100.00
20145;BME280;10233;50.814;6.590;2023-03-21T03:33:15;100207.72;;;10.08;100.00
20145;BME280;10233;50.814;6.590;2023-03-21T03:34:20;100212.84;;;10.10;100.00
20145;BME280;10233;50.814;6.590;2023-03-21T03:35:23;100212.25;;;10.08;100.00
20145;BME280;10233;50.814;6.590;2023-03-21T03:36:29;100209.78;;;10.19;100.00
20145;BME280;10233;50.814;6.590;2023-03-21T03:37:44;100205.28;;;10.13;100.00
20145;BME280;10233;50.814;6.590;2023-03-21T03:38:48;100201.41;;;10.16;100.00
20145;BME280;10233;50.814;6.590;2023-03-21T03:39:56;100206.94;;;10.08;100.00
20145;BME280;10233;50.814;6.590;2023-03-21T03:41:11;100203.00;;;10.04;100.00
20145;BME280;10233;50.814;6.590;2023-03-21T03:42:25;100202.56;;;9.94;100.00
20145;BME280;10233;50.814;6.590;2023-03-21T03:43:42;100202.13;;;9.90;100.00
20145;BME280;10233;50.814;6.590;2023-03-21T03:44:46;100199.47;;;9.90;100.00
20145;BME280;10233;50.814;6.590;2023-03-21T03:45:53;100197.84;;;9.96;100.00
20145;BME280;10233;50.814;6.590;2023-03-21T03:47:39;100203.13;;;9.89;100.00
20145;BME280;10233;50.814;6.590;2023-03-21T03:48:46;100193.34;;;9.90;100.00
20145;BME280;10233;50.814;6.590;2023-03-21T03:49:54;100201.53;;;9.95;100.00
20145;BME280;10233;50.814;6.590;2023-03-21T03:51:06;100196.19;;;9.88;100.00
20145;BME280;10233;50.814;6.590;2023-03-21T03:52:55;100196.59;;;9.92;100.00
20145;BME280;10233;50.814;6.590;2023-03-21T03:54:11;100199.09;;;10.00;100.00
20145;BME280;10233;50.814;6.590;2023-03-21T03:55:15;100198.22;;;9.86;100.00
20145;BME280;10233;50.814;6.590;2023-03-21T03:56:19;100200.47;;;9.89;100.00
20145;BME280;10233;50.814;6.590;2023-03-21T03:57:20;100198.63;;;9.83;100.00
20145;BME280;10233;50.814;6.590;2023-03-21T03:58:23;100200.88;;;9.86;100.00
20145;BME280;10233;50.814;6.590;2023-03-21T03:59:24;100202.09;;;9.84;100.00
20145;BME280;10233;50.814;6.590;2023-03-21T04:00:45;100202.34;;;9.95;100.00
20145;BME280;10233;50.814;6.590;2023-03-21T04:01:45;100197.84;;;9.96;100.00
20145;BME280;10233;50.814;6.590;2023-03-21T04:02:46;100198.25;;;9.93;100.00
20145;BME280;10233;50.814;6.590;2023-03-21T04:03:51;100201.13;;;9.91;100.00
20145;BME280;10233;50.814;6.590;2023-03-21T04:04:52;100201.13;;;9.91;100.00
20145;BME280;10233;50.814;6.590;2023-03-21T04:05:53;100204.97;;;9.89;100.00
20145;BME280;10233;50.814;6.590;2023-03-21T04:06:54;100202.53;;;9.87;100.00
20145;BME280;10233;50.814;6.590;2023-03-21T04:07:57;100203.09;;;9.83;100.00
20145;BME280;10233;50.814;6.590;2023-03-21T04:09:08;100198.22;;;9.86;100.00
20145;BME280;10233;50.814;6.590;2023-03-21T04:10:09;100192.94;;;9.86;100.00
20145;BME280;10233;50.814;6.590;2023-03-21T04:11:14;100192.28;;;9.84;100.00
20145;BME280;10233;50.814;6.590;2023-03-21T04:12:18;100193.69;;;9.80;100.00
20145;BME280;10233;50.814;6.590;2023-03-21T04:13:46;100198.00;;;9.81;100.00
20145;BME280;10233;50.814;6.590;2023-03-21T04:14:53;100198.41;;;9.78;100.00
20145;BME280;10233;50.814;6.590;2023-03-21T04:15:54;100202.25;;;9.76;100.00
20145;BME280;10233;50.814;6.590;2023-03-21T04:16:55;100204.09;;;9.75;100.00
20145;BME280;10233;50.814;6.590;2023-03-21T04:17:56;100195.75;;;9.78;100.00
20145;BME280;10233;50.814;6.590;2023-03-21T04:18:57;100200.25;;;9.84;100.00
20145;BME280;10233;50.814;6.590;2023-03-21T04:19:57;100195.13;;;9.76;100.00
20145;BME280;10233;50.814;6.590;2023-03-21T04:20:58;100200.22;;;9.71;100.00
20145;BME280;10233;50.814;6.590;2023-03-21T04:22:02;100198.41;;;9.78;100.00
20145;BME280;10233;50.814;6.590;2023-03-21T04:23:04;100199.84;;;9.81;100.00
20145;BME280;10233;50.814;6.590;2023-03-21T04:24:05;100199.38;;;9.71;100.00
20145;BME280;10233;50.814;6.590;2023-03-21T04:25:07;100194.91;;;9.71;100.00
20145;BME280;10233;50.814;6.590;2023-03-21T04:26:10;100195.69;;;9.72;100.00
20145;BME280;10233;50.814;6.590;2023-03-21T04:27:16;100184.91;;;9.73;100.00
20145;BME280;10233;50.814;6.590;2023-03-21T04:28:32;100193.66;;;9.67;100.00
20145;BME280;10233;50.814;6.590;2023-03-21T04:29:49;100193.66;;;9.67;100.00
20145;BME280;10233;50.814;6.590;2023-03-21T04:31:19;100193.88;;;9.72;100.00
20145;BME280;10233;50.814;6.590;2023-03-21T04:32:23;100191.19;;;9.66;100.00
20145;BME280;10233;50.814;6.590;2023-03-21T04:33:38;100189.56;;;9.65;100.00
20145;BME280;10233;50.814;6.590;2023-03-21T04:34:39;100192.41;;;9.63;100.00
20145;BME280;10233;50.814;6.590;2023-03-21T04:35:40;100195.66;;;9.65;100.00
20145;BME280;10233;50.814;6.590;2023-03-21T04:36:43;100192.84;;;9.73;100.00
20145;BME280;10233;50.814;6.590;2023-03-21T04:37:45;100194.25;;;9.69;100.00
20145;BME280;10233;50.814;6.590;2023-03-21T04:38:48;100190.78;;;9.62;100.00
20145;BME280;10233;50.814;6.590;2023-03-21T04:39:53;100189.56;;;9.65;100.00
20145;BME280;10233;50.814;6.590;2023-03-21T04:40:56;100193.50;;;9.82;100.00
20145;BME280;10233;50.814;6.590;2023-03-21T04:41:56;100189.19;;;9.74;100.00
20145;BME280;10233;50.814;6.590;2023-03-21T04:42:57;100188.56;;;9.72;100.00
20145;BME280;10233;50.814;6.590;2023-03-21T04:44:01;100190.41;;;9.72;100.00
20145;BME280;10233;50.814;6.590;2023-03-21T04:45:02;100189.22;;;9.81;100.00
20145;BME280;10233;50.814;6.590;2023-03-21T04:46:03;100189.81;;;9.76;100.00
20145;BME280;10233;50.814;6.590;2023-03-21T04:47:06;100187.34;;;9.75;100.00
20145;BME280;10233;50.814;6.590;2023-03-21T04:48:07;100182.44;;;9.72;100.00
20145;BME280;10233;50.814;6.590;2023-03-21T04:49:08;100193.25;;;9.70;100.00
20145;BME280;10233;50.814;6.590;2023-03-21T04:50:09;100186.31;;;9.69;100.00
20145;BME280;10233;50.814;6.590;2023-03-21T04:51:14;100188.56;;;9.72;100.00
20145;BME280;10233;50.814;6.590;2023-03-21T04:52:15;100182.00;;;9.68;100.00
20145;BME280;10233;50.814;6.590;2023-03-21T04:53:16;100189.97;;;9.68;100.00
20145;BME280;10233;50.814;6.590;2023-03-21T04:54:17;100194.44;;;9.68;100.00
20145;BME280;10233;50.814;6.590;2023-03-21T04:55:20;100180.19;;;9.69;100.00
20145;BME280;10233;50.814;6.590;2023-03-21T04:56:23;100185.06;;;9.65;100.00
20145;BME280;10233;50.814;6.590;2023-03-21T04:57:31;100184.06;;;9.66;100.00
20145;BME280;10233;50.814;6.590;2023-03-21T04:58:32;100184.44;;;9.63;100.00
20145;BME280;10233;50.814;6.590;2023-03-21T04:59:33;100186.72;;;9.66;100.00
20145;BME280;10233;50.814;6.590;2023-03-21T05:00:34;100183.03;;;9.67;100.00
20145;BME280;10233;50.814;6.590;2023-03-21T05:01:38;100183.03;;;9.67;100.00
20145;BME280;10233;50.814;6.590;2023-03-21T05:02:40;100187.13;;;9.70;100.00
20145;BME280;10233;50.814;6.590;2023-03-21T05:03:41;100181.84;;;9.76;100.00
20145;BME280;10233;50.814;6.590;2023-03-21T05:04:41;100182.22;;;9.67;100.00
20145;BME280;10233;50.814;6.590;2023-03-21T05:05:42;100181.59;;;9.65;100.00
20145;BME280;10233;50.814;6.590;2023-03-21T05:06:44;100184.22;;;9.58;100.00
20145;BME280;10233;50.814;6.590;2023-03-21T05:07:45;100185.84;;;9.59;100.00
20145;BME280;10233;50.814;6.590;2023-03-21T05:08:46;100181.75;;;9.57;100.00
20145;BME280;10233;50.814;6.590;2023-03-21T05:09:47;100184.44;;;9.63;100.00
20145;BME280;10233;50.814;6.590;2023-03-21T05:10:51;100185.84;;;9.59;100.00
20145;BME280;10233;50.814;6.590;2023-03-21T05:11:52;100180.94;;;9.56;100.00
20145;BME280;10233;50.814;6.590;2023-03-21T05:12:53;100185.63;;;9.54;100.00
20145;BME280;10233;50.814;6.590;2023-03-21T05:13:56;100182.34;;;9.52;100.00
20145;BME280;10233;50.814;6.590;2023-03-21T05:14:56;100187.03;;;9.50;100.00
20145;BME280;10233;50.814;6.590;2023-03-21T05:15:57;100185.84;;;9.59;100.00
20145;BME280;10233;50.814;6.590;2023-03-21T05:16:58;100191.16;;;9.59;100.00
20145;BME280;10233;50.814;6.590;2023-03-21T05:18:05;100181.75;;;9.57;100.00
20145;BME280;10233;50.814;6.590;2023-03-21T05:19:30;100185.06;;;9.59;100.00
20145;BME280;10233;50.814;6.590;2023-03-21T05:20:40;100188.28;;;9.54;100.00
20145;BME280;10233;50.814;6.590;2023-03-21T05:21:44;100187.69;;;9.59;100.00
20145;BME280;10233;50.814;6.590;2023-03-21T05:22:49;100189.91;;;9.55;100.00
20145;BME280;10233;50.814;6.590;2023-03-21T05:23:52;100193.19;;;9.57;100.00
20145;BME280;10233;50.814;6.590;2023-03-21T05:25:00;100187.09;;;9.63;100.00
20145;BME280;10233;50.814;6.590;2023-03-21T05:26:21;100190.78;;;9.62;100.00
20145;BME280;10233;50.814;6.590;2023-03-21T05:27:30;100187.03;;;9.50;100.00
20145;BME280;10233;50.814;6.590;2023-03-21T05:28:43;100189.34;;;9.60;100.00
20145;BME280;10233;50.814;6.590;2023-03-21T05:29:44;100193.00;;;9.65;100.00
20145;BME280;10233;50.814;6.590;2023-03-21T05:30:45;100189.16;;;9.61;100.00
20145;BME280;10233;50.814;6.590;2023-03-21T05:31:46;100189.94;;;9.62;100.00
20145;BME280;10233;50.814;6.590;2023-03-21T05:32:48;100188.28;;;9.54;100.00
20145;BME280;10233;50.814;6.590;2023-03-21T05:33:50;100193.34;;;9.49;100.00
20145;BME280;10233;50.814;6.590;2023-03-21T05:34:52;100203.63;;;9.59;100.00
20145;BME280;10233;50.814;6.590;2023-03-21T05:35:58;100192.78;;;9.60;100.00
20145;BME280;10233;50.814;6.590;2023-03-21T05:37:03;100195.63;;;9.52;100.00
20145;BME280;10233;50.814;6.590;2023-03-21T05:38:15;100189.91;;;9.55;100.00
20145;BME280;10233;50.814;6.590;2023-03-21T05:39:26;100189.91;;;9.55;100.00
20145;BME280;10233;50.814;6.590;2023-03-21T05:40:37;100186.84;;;9.52;100.00
20145;BME280;10233;50.814;6.590;2023-03-21T05:41:38;100196.41;;;9.46;100.00
20145;BME280;10233;50.814;6.590;2023-03-21T05:42:39;100193.56;;;9.54;100.00
20145;BME280;10233;50.814;6.590;2023-03-21T05:43:50;100194.41;;;9.55;100.00
20145;BME280;10233;50.814;6.590;2023-03-21T05:44:50;100192.97;;;9.52;100.00
20145;BME280;10233;50.814;6.590;2023-03-21T05:45:55;100194.78;;;9.52;100.00
20145;BME280;10233;50.814;6.590;2023-03-21T05:46:58;100194.00;;;9.51;100.00
20145;BME280;10233;50.814;6.590;2023-03-21T05:48:09;100199.34;;;9.64;100.00
20145;BME280;10233;50.814;6.590;2023-03-21T05:49:25;100192.56;;;9.55;100.00
20145;BME280;10233;50.814;6.590;2023-03-21T05:50:30;100196.44;;;9.53;100.00
20145;BME280;10233;50.814;6.590;2023-03-21T05:51:44;100196.19;;;9.48;100.00
20145;BME280;10233;50.814;6.590;2023-03-21T05:52:46;100207.50;;;9.56;100.00
20145;BME280;10233;50.814;6.590;2023-03-21T05:53:48;100202.75;;;9.52;100.00
20145;BME280;10233;50.814;6.590;2023-03-21T05:54:50;100200.94;;;9.52;100.00
20145;BME280;10233;50.814;6.590;2023-03-21T05:55:54;100203.41;;;9.54;100.00
20145;BME280;10233;50.814;6.590;2023-03-21T05:57:24;100202.63;;;9.66;100.00
20145;BME280;10233;50.814;6.590;2023-03-21T05:58:31;100203.41;;;9.60;100.00
20145;BME280;10233;50.814;6.590;2023-03-21T05:59:33;100196.28;;;9.61;100.00
20145;BME280;10233;50.814;6.590;2023-03-21T06:00:34;100198.31;;;9.65;100.00
20145;BME280;10233;50.814;6.590;2023-03-21T06:01:49;100208.97;;;9.72;100.00
20145;BME280;10233;50.814;6.590;2023-03-21T06:02:50;100207.13;;;9.66;100.00
20145;BME280;10233;50.814;6.590;2023-03-21T06:04:11;100202.44;;;9.74;100.00
20145;BME280;10233;50.814;6.590;2023-03-21T06:05:13;100205.47;;;9.65;100.00
20145;BME280;10233;50.814;6.590;2023-03-21T06:06:14;100203.84;;;9.70;100.00
20145;BME280;10233;50.814;6.590;2023-03-21T06:07:41;100202.88;;;9.71;100.00
20145;BME280;10233;50.814;6.590;2023-03-21T06:08:41;100207.53;;;9.69;100.00
20145;BME280;10233;50.814;6.590;2023-03-21T06:09:42;100210.84;;;9.71;100.00
20145;BME280;10233;50.814;6.590;2023-03-21T06:10:43;100202.44;;;9.74;100.00
20145;BME280;10233;50.814;6.590;2023-03-21T06:11:46;100219.84;;;9.83;100.00
20145;BME280;10233;50.814;6.590;2023-03-21T06:13:13;100208.41;;;9.83;100.00
20145;BME280;10233;50.814;6.590;2023-03-21T06:14:17;100208.84;;;9.86;100.00
20145;BME280;10233;50.814;6.590;2023-03-21T06:15:20;100212.94;;;9.89;100.00
20145;BME280;10233;50.814;6.590;2023-03-21T06:16:33;100208.66;;;9.94;100.00